Junction, TX

4:30 PM CDT on July 02, 2015 (GMT -0500)
APRSWXNET | | Change Station
CLOSE
Current Station
Personal Weather Station
Location: Junction, TX
Elevation: 1715 ft
Nearby Weather Stations

Elev 1715 ft 30.47 °N, 99.78 °W | Updated 29 minutes ago

Partly Cloudy
Partly Cloudy
85 °F
Feels Like 87 °F
N
7
Wind Variable Wind from South
Gusts 23.0 mph

Today
High -- | Low -- °F
--% Chance of Precip.
Yesterday
High -- | Low -- °F
Precip. -- in
6:40 AM 8:45 PM
Full, 99% visible
Pressure 29.88 in
Visibility 10.0 miles
Clouds Few 5000 ft
Heat Index 87 °F
Dew Point 65 °F
Humidity 51%
Rainfall in
Snow Depth Not available.
UV 9 out of 12
Pollen 4.40 out of 12
Air Quality Not available.
Flu Activity Not available.
METAR KJCT 022051Z AUTO 15016G20KT 10SM FEW050 31/17 A2998 RMK AO2 SLP116 T03110172 56015

More Conditions Fewer Conditions

Pressure 29.88 in
Visibility 10.0 miles
Clouds Few 5000 ft
Heat Index 87 °F
Dew Point 65 °F
Humidity 51%
Rainfall in
Snow Depth Not available.
UV 9 out of 12
Pollen 4.40 out of 12
Air Quality Not available.
Flu Activity Not available.
METAR KJCT 022051Z AUTO 15016G20KT 10SM FEW050 31/17 A2998 RMK AO2 SLP116 T03110172 56015

More Conditions Fewer Conditions

10-Day Weather Forecast

×

Almanac

Astronomy

Jul. 02, 2015 Rise Set
Actual Time
Civil Twilight
Nautical Twilight
Astronomical Twilight
Moon
Length of Visible Light
Length of Day
Tomorrow will be .
, % of the Moon is Illuminated

Today's Extremes

State Highs State Lows

Community

WunderPhotos

Upload Photos

1,834,547 photos uploaded!

WunderBlogs® & News

Nearby

Air Quality

  Air Quality AQ Index Pollutant
Not available.

Snow Depth

Station Depth Elevation

Earthquake Activity

City Distance Mag. Time & Date
Minimum magnitude displayed is 2.5.

Coastal Water Temperatures

Place Temperature

Stations

Nearby Weather Stations

Station Location Temp. Windchill Dew Point Humidity Wind Precip. Elev Updated Type